Time;durP1;ratioP1;P1;durP2;ratioP2;P2;SDS_P1;SDS_P2;PMS_P1;PMS_P2;Temp;Humidity;BMP_temperature;BMP_pressure;BME280_temperature;BME280_humidity;BME280_pressure;Samples;Min_cycle;Max_cycle;Signal;HPM_P1;HPM_P2
2021/06/29 00:01:52;;;;;;;3.83;1.80;;;;;;;11.35;83.50;100254.91;4975961;28;20034;-77
2021/06/29 00:04:17;;;;;;;6.63;1.75;;;;;;;11.36;83.40;100253.75;5015117;28;20033;-76
2021/06/29 00:06:43;;;;;;;3.92;1.63;;;;;;;11.30;83.47;100249.44;4967168;28;20014;-76
2021/06/29 00:09:08;;;;;;;3.75;1.80;;;;;;;11.22;83.81;100246.53;5017159;28;20025;-76
2021/06/29 00:11:34;;;;;;;3.58;1.58;;;;;;;11.22;83.80;100241.78;4981753;28;20399;-76
2021/06/29 00:13:59;;;;;;;2.67;1.65;;;;;;;11.20;83.53;100241.28;4984391;28;20402;-76
2021/06/29 00:16:25;;;;;;;2.67;2.00;;;;;;;11.15;83.78;100253.31;5000539;28;20046;-76
2021/06/29 00:18:51;;;;;;;4.60;1.73;;;;;;;11.14;83.79;100245.25;4981263;28;20391;-76
2021/06/29 00:21:16;;;;;;;3.92;1.70;;;;;;;11.13;83.49;100241.66;5013469;28;20081;-76
2021/06/29 00:23:42;;;;;;;1.75;1.50;;;;;;;11.11;83.66;100238.34;4996668;28;20041;-76
2021/06/29 00:26:07;;;;;;;1.73;1.42;;;;;;;11.11;83.39;100234.75;4981073;28;20073;-76
2021/06/29 00:28:34;;;;;;;2.97;1.70;;;;;;;11.06;83.70;100232.06;4983536;28;21085;-76
2021/06/29 00:30:59;;;;;;;3.28;1.60;;;;;;;10.95;83.84;100229.47;5003357;28;20032;-76
2021/06/29 00:33:25;;;;;;;4.40;1.67;;;;;;;10.97;83.81;100223.59;5004884;28;20022;-76
2021/06/29 00:35:50;;;;;;;2.55;1.90;;;;;;;10.93;83.87;100228.94;4996104;28;20026;-76
2021/06/29 00:38:15;;;;;;;3.30;1.63;;;;;;;10.94;83.48;100233.38;4987150;28;20022;-70
2021/06/29 00:40:41;;;;;;;2.83;1.73;;;;;;;10.89;83.66;100227.06;4983927;28;20030;-70
2021/06/29 00:43:06;;;;;;;3.55;1.60;;;;;;;10.86;83.97;100228.50;5015103;28;20085;-70
2021/06/29 00:45:32;;;;;;;2.95;1.67;;;;;;;10.90;83.74;100229.56;5028412;28;20125;-70
2021/06/29 00:47:58;;;;;;;4.53;1.80;;;;;;;10.84;83.91;100230.78;4997488;28;20038;-70
2021/06/29 00:50:23;;;;;;;2.17;1.58;;;;;;;10.80;84.02;100226.94;5000283;28;20084;-70
2021/06/29 00:52:49;;;;;;;4.03;2.00;;;;;;;10.79;84.07;100233.63;5014809;28;20381;-70
2021/06/29 00:55:14;;;;;;;2.88;1.90;;;;;;;10.77;84.27;100232.28;5004593;28;20037;-70
2021/06/29 00:57:41;;;;;;;2.88;1.95;;;;;;;10.79;84.36;100233.63;5012809;28;20052;-70
2021/06/29 01:00:08;;;;;;;2.95;1.80;;;;;;;10.72;84.17;100228.44;4975889;28;20494;-70
2021/06/29 01:02:33;;;;;;;1.85;1.55;;;;;;;10.71;84.24;100225.97;5009154;28;20030;-70
2021/06/29 01:04:59;;;;;;;2.47;1.75;;;;;;;10.70;84.39;100227.13;5015553;28;20033;-70
2021/06/29 01:07:24;;;;;;;2.10;1.63;;;;;;;10.71;84.11;100228.75;4999416;28;20513;-70
2021/06/29 01:09:50;;;;;;;4.00;1.70;;;;;;;10.68;84.21;100223.81;5015858;28;20037;-70
2021/06/29 01:12:16;;;;;;;3.78;1.80;;;;;;;10.67;84.11;100223.00;4981781;28;20360;-70
2021/06/29 01:14:41;;;;;;;4.40;2.33;;;;;;;10.62;84.48;100225.03;4983293;28;20033;-70
2021/06/29 01:17:08;;;;;;;3.30;1.85;;;;;;;10.60;84.34;100219.75;4986063;28;20037;-70
2021/06/29 01:19:47;;;;;;;3.85;1.70;;;;;;;10.59;84.45;100226.44;4983551;28;20029;-69
2021/06/29 01:22:13;;;;;;;3.55;1.75;;;;;;;10.56;84.49;100228.97;5014188;28;20505;-70
2021/06/29 01:24:40;;;;;;;3.35;1.80;;;;;;;10.59;84.40;100220.06;4980028;28;20026;-70
2021/06/29 01:32:21;;;;;;;2.17;1.58;;;;;;;10.52;84.27;100228.75;5015593;28;20589;-70
2021/06/29 01:34:46;;;;;;;3.67;1.70;;;;;;;10.48;84.40;100224.94;4982865;28;20021;-70
2021/06/29 01:37:12;;;;;;;2.45;1.48;;;;;;;10.46;84.16;100233.56;4977439;28;20038;-70
2021/06/29 01:39:49;;;;;;;1.83;1.60;;;;;;;10.44;84.20;100229.44;4988609;28;20101;-70
2021/06/29 01:42:15;;;;;;;3.00;1.40;;;;;;;10.36;84.54;100225.38;4970775;28;20508;-70
2021/06/29 01:44:41;;;;;;;1.75;1.38;;;;;;;10.35;84.56;100220.97;5015718;28;20025;-70
2021/06/29 01:47:10;;;;;;;1.98;1.58;;;;;;;10.36;84.37;100210.69;5004322;28;20089;-70
2021/06/29 01:49:35;;;;;;;1.90;1.40;;;;;;;10.30;84.42;100212.69;4990009;28;20414;-70
2021/06/29 01:52:01;;;;;;;2.38;1.50;;;;;;;10.29;84.31;100214.66;4987117;28;20029;-70
2021/06/29 01:54:27;;;;;;;1.73;1.50;;;;;;;10.22;84.61;100214.19;4982726;28;20037;-70
2021/06/29 01:56:53;;;;;;;1.65;1.20;;;;;;;10.22;84.42;100213.34;5007026;28;20042;-70
2021/06/29 01:59:20;;;;;;;1.67;1.38;;;;;;;10.23;84.50;100209.47;4964609;28;20034;-70
2021/06/29 02:01:46;;;;;;;2.05;1.50;;;;;;;10.19;84.72;100214.75;4983138;28;20033;-70
2021/06/29 02:04:12;;;;;;;2.58;1.20;;;;;;;10.19;84.66;100208.38;4997061;28;20494;-70
2021/06/29 02:06:38;;;;;;;2.60;1.25;;;;;;;10.17;84.41;100205.94;4997246;28;20014;-70
2021/06/29 02:09:10;;;;;;;1.45;1.20;;;;;;;10.15;84.48;100218.44;4982637;28;20034;-70
2021/06/29 02:11:36;;;;;;;1.67;1.50;;;;;;;10.10;84.84;100213.78;4976051;28;20048;-70
2021/06/29 02:14:02;;;;;;;2.63;1.25;;;;;;;10.11;84.25;100218.19;5008014;28;20031;-71
2021/06/29 02:16:28;;;;;;;1.88;0.90;;;;;;;10.06;84.61;100226.63;4984923;28;20034;-70
2021/06/29 02:18:53;;;;;;;0.85;0.65;;;;;;;10.07;84.75;100220.75;4979342;28;20038;-71
2021/06/29 02:21:19;;;;;;;2.15;1.08;;;;;;;10.04;84.69;100221.34;5004745;28;20030;-70
2021/06/29 02:23:44;;;;;;;1.10;0.93;;;;;;;10.00;84.53;100231.41;4985571;28;20026;-70
2021/06/29 02:26:10;;;;;;;2.55;1.05;;;;;;;9.99;84.85;100221.41;4998852;28;20033;-70
2021/06/29 02:28:35;;;;;;;1.00;0.90;;;;;;;9.99;84.85;100226.13;4982411;28;20035;-70
2021/06/29 02:31:01;;;;;;;1.33;1.00;;;;;;;9.94;84.93;100223.44;4992012;28;20081;-69
2021/06/29 02:33:26;;;;;;;1.20;0.90;;;;;;;9.93;84.80;100217.06;5020080;28;20026;-69
2021/06/29 02:35:52;;;;;;;1.00;0.90;;;;;;;9.97;84.98;100222.84;4978920;28;20394;-69
2021/06/29 02:38:17;;;;;;;1.30;1.20;;;;;;;9.94;84.83;100218.69;4998542;28;20033;-69
2021/06/29 02:40:43;;;;;;;1.10;1.00;;;;;;;9.95;84.88;100214.81;4998522;28;20026;-69
2021/06/29 02:43:08;;;;;;;3.00;1.30;;;;;;;9.99;84.94;100215.88;4985674;28;20030;-69
2021/06/29 02:45:34;;;;;;;2.75;1.45;;;;;;;9.96;84.89;100219.22;4978822;28;20027;-70
2021/06/29 02:48:01;;;;;;;1.75;1.35;;;;;;;9.96;85.17;100222.00;4991372;28;20037;-70
2021/06/29 02:50:26;;;;;;;3.67;1.88;;;;;;;9.98;85.33;100219.78;4998819;28;20030;-69
2021/06/29 02:52:52;;;;;;;2.90;1.95;;;;;;;10.01;85.71;100221.94;4996554;28;20041;-70
2021/06/29 02:55:17;;;;;;;2.17;1.60;;;;;;;10.03;85.76;100228.03;4990329;28;20038;-70
2021/06/29 02:57:44;;;;;;;3.15;1.70;;;;;;;10.06;85.76;100218.28;4993285;28;20042;-70
2021/06/29 03:00:11;;;;;;;1.55;1.33;;;;;;;10.07;85.90;100214.38;4958665;28;20121;-70
2021/06/29 03:02:37;;;;;;;1.70;1.60;;;;;;;10.09;86.13;100206.59;4995288;28;20040;-69
2021/06/29 03:05:04;;;;;;;3.97;1.80;;;;;;;10.11;86.17;100206.28;4991080;28;20033;-70
2021/06/29 03:07:29;;;;;;;2.10;1.73;;;;;;;10.13;86.27;100206.81;5000109;28;20888;-70
2021/06/29 03:09:55;;;;;;;2.22;1.60;;;;;;;10.16;86.01;100203.44;4982539;28;20088;-70
2021/06/29 03:12:20;;;;;;;2.28;1.50;;;;;;;10.18;86.08;100198.44;5001683;28;20034;-69
2021/06/29 03:14:49;;;;;;;2.55;1.30;;;;;;;10.19;85.83;100198.09;5001759;28;20029;-70
2021/06/29 03:17:15;;;;;;;1.67;1.40;;;;;;;10.20;85.86;100196.19;5030957;28;20109;-70
2021/06/29 03:19:40;;;;;;;1.55;1.40;;;;;;;10.21;86.44;100201.41;5014916;28;20034;-70
2021/06/29 03:22:06;;;;;;;2.08;1.50;;;;;;;10.27;85.82;100208.56;5001791;28;20471;-70
2021/06/29 03:24:31;;;;;;;2.05;1.70;;;;;;;10.27;86.60;100200.25;4991625;28;20092;-70
2021/06/29 03:26:57;;;;;;;1.70;1.60;;;;;;;10.29;86.83;100200.78;5001272;28;20474;-70
2021/06/29 03:29:22;;;;;;;2.00;1.80;;;;;;;10.30;86.56;100201.59;4985262;28;20022;-70
2021/06/29 03:31:48;;;;;;;1.50;1.40;;;;;;;10.33;86.93;100203.78;5009760;28;20030;-70
2021/06/29 03:34:14;;;;;;;2.03;1.80;;;;;;;10.35;86.55;100197.94;4981990;28;20030;-70
2021/06/29 03:36:40;;;;;;;1.83;1.63;;;;;;;10.39;87.27;100202.59;5017515;28;20033;-70
2021/06/29 03:39:06;;;;;;;2.00;1.80;;;;;;;10.41;87.11;100205.88;4998219;28;20038;-70
2021/06/29 03:41:31;;;;;;;2.55;1.95;;;;;;;10.47;86.97;100201.06;5016676;28;20030;-70
2021/06/29 03:43:57;;;;;;;2.40;1.80;;;;;;;10.47;87.14;100196.38;5005610;28;20029;-70
2021/06/29 03:46:23;;;;;;;2.05;1.85;;;;;;;10.51;86.91;100191.84;4983558;28;20018;-70
2021/06/29 03:48:48;;;;;;;2.50;1.75;;;;;;;10.54;86.80;100200.72;4986043;28;20034;-70
2021/06/29 03:51:14;;;;;;;2.78;2.08;;;;;;;10.56;87.07;100199.28;5000905;28;20030;-70
2021/06/29 03:53:39;;;;;;;1.80;1.70;;;;;;;10.60;87.19;100191.16;4977260;28;20483;-70
2021/06/29 03:56:05;;;;;;;2.00;1.67;;;;;;;10.63;87.12;100202.50;4982263;28;20031;-70
2021/06/29 03:58:30;;;;;;;1.83;1.67;;;;;;;10.64;86.98;100203.31;5009672;28;20085;-70
2021/06/29 04:00:56;;;;;;;2.20;1.90;;;;;;;10.66;86.94;100199.09;4993032;28;20026;-70
2021/06/29 04:03:21;;;;;;;4.75;1.52;;;;;;;10.73;87.12;100195.97;4993165;28;20041;-70
2021/06/29 04:05:47;;;;;;;2.33;2.00;;;;;;;10.72;87.10;100189.56;4968271;28;20025;-70
2021/06/29 04:08:12;;;;;;;2.10;1.90;;;;;;;10.77;86.94;100185.88;5017129;28;20033;-70
2021/06/29 04:10:38;;;;;;;1.85;1.70;;;;;;;10.77;86.98;100180.31;4999062;28;20390;-70
2021/06/29 04:13:04;;;;;;;2.55;2.00;;;;;;;10.79;86.85;100180.84;4985654;28;20027;-70
2021/06/29 04:15:29;;;;;;;1.65;1.55;;;;;;;10.80;87.44;100185.28;4993164;28;20126;-70
2021/06/29 04:17:55;;;;;;;2.38;2.17;;;;;;;10.83;87.41;100183.84;4992546;28;20085;-70
2021/06/29 04:20:20;;;;;;;5.13;1.77;;;;;;;10.85;87.08;100181.59;5012810;28;20037;-70
2021/06/29 04:22:46;;;;;;;3.10;1.65;;;;;;;10.84;86.96;100179.94;4976729;28;20125;-70
2021/06/29 04:25:12;;;;;;;3.20;1.85;;;;;;;10.89;86.94;100193.72;5012812;28;20033;-70
2021/06/29 04:27:37;;;;;;;2.58;1.90;;;;;;;10.89;87.10;100194.59;4992760;28;20092;-70
2021/06/29 04:30:07;;;;;;;1.90;1.80;;;;;;;10.91;86.25;100192.31;5003763;28;20026;-70
2021/06/29 04:32:32;;;;;;;2.08;1.80;;;;;;;10.91;86.94;100206.19;5007100;28;20495;-70
2021/06/29 04:34:58;;;;;;;3.10;2.30;;;;;;;10.94;86.86;100208.34;4982234;28;20030;-70
2021/06/29 04:37:24;;;;;;;2.75;2.50;;;;;;;10.95;87.00;100204.47;5000311;28;20045;-70
2021/06/29 04:39:49;;;;;;;5.95;3.17;;;;;;;10.95;88.26;100206.44;4997559;28;20054;-70
2021/06/29 04:42:15;;;;;;;2.40;2.20;;;;;;;10.97;87.13;100206.94;4983914;28;20026;-70
2021/06/29 04:44:40;;;;;;;2.67;1.85;;;;;;;11.01;86.94;100212.72;4987013;28;20487;-70
2021/06/29 04:47:07;;;;;;;2.70;2.10;;;;;;;11.00;86.98;100216.63;4990675;28;20026;-70
2021/06/29 04:49:32;;;;;;;2.20;2.00;;;;;;;11.05;87.15;100219.31;5005716;28;20097;-70
2021/06/29 04:51:58;;;;;;;2.30;1.95;;;;;;;11.04;87.56;100228.78;4983944;28;20104;-70
2021/06/29 04:54:24;;;;;;;2.13;1.92;;;;;;;11.10;87.35;100227.56;4996735;28;20065;-70
2021/06/29 04:56:49;;;;;;;3.72;1.83;;;;;;;11.09;87.45;100231.47;5016160;28;20050;-71
2021/06/29 04:59:16;;;;;;;2.60;2.13;;;;;;;11.12;87.41;100233.66;5010639;28;20064;-71
2021/06/29 05:01:42;;;;;;;1.73;1.63;;;;;;;11.11;86.91;100232.81;4983985;28;20029;-70
2021/06/29 05:04:07;;;;;;;2.00;1.80;;;;;;;11.15;86.88;100238.59;4984040;28;20035;-72
2021/06/29 05:06:33;;;;;;;2.55;1.95;;;;;;;11.15;86.97;100244.16;4982266;28;20493;-71
2021/06/29 05:08:58;;;;;;;2.08;1.88;;;;;;;11.18;87.32;100241.59;5002672;28;20407;-71
2021/06/29 05:11:24;;;;;;;2.50;2.28;;;;;;;11.19;87.94;100242.41;4984767;28;20442;-71
2021/06/29 05:13:49;;;;;;;2.85;2.00;;;;;;;11.23;88.06;100237.06;5002639;28;20487;-71
2021/06/29 05:16:15;;;;;;;2.10;1.90;;;;;;;11.26;88.07;100248.41;5007812;28;20398;-71
2021/06/29 05:18:40;;;;;;;3.72;2.10;;;;;;;11.29;87.50;100241.41;4991040;28;20029;-71
2021/06/29 05:21:06;;;;;;;2.28;2.08;;;;;;;11.28;87.52;100235.03;5004342;28;20033;-70
2021/06/29 05:23:31;;;;;;;2.30;2.10;;;;;;;11.33;87.86;100245.22;4991652;28;20037;-70
2021/06/29 05:25:57;;;;;;;2.97;2.15;;;;;;;11.38;87.63;100245.94;5004365;28;20022;-70
2021/06/29 05:28:23;;;;;;;2.08;1.90;;;;;;;11.39;87.31;100246.78;5012352;28;20397;-70
2021/06/29 05:30:48;;;;;;;2.78;1.88;;;;;;;11.40;87.13;100257.59;5019238;28;20473;-70
2021/06/29 05:33:15;;;;;;;2.42;1.80;;;;;;;11.43;87.00;100253.38;5003851;28;20038;-70
2021/06/29 05:35:40;;;;;;;2.58;2.00;;;;;;;11.46;87.32;100257.50;4993272;28;20035;-70
2021/06/29 05:38:07;;;;;;;2.10;1.90;;;;;;;11.49;87.32;100257.72;4979756;28;20040;-70
2021/06/29 05:40:33;;;;;;;2.35;2.00;;;;;;;11.51;87.64;100260.19;4980111;28;20116;-70
2021/06/29 05:42:59;;;;;;;2.40;2.20;;;;;;;11.56;87.99;100268.44;4981612;28;20028;-70
2021/06/29 05:45:24;;;;;;;2.42;2.22;;;;;;;11.57;87.58;100270.09;5027423;28;20025;-72
2021/06/29 05:47:51;;;;;;;2.25;2.05;;;;;;;11.62;88.11;100270.81;4995249;28;20049;-72
2021/06/29 05:50:17;;;;;;;4.00;2.95;;;;;;;11.66;87.98;100268.25;4966874;28;20117;-72
2021/06/29 05:52:42;;;;;;;3.17;2.88;;;;;;;11.70;88.58;100280.44;4977162;28;20068;-72
2021/06/29 05:55:08;;;;;;;2.58;2.33;;;;;;;11.73;89.04;100271.47;4982913;28;20029;-72
2021/06/29 05:57:36;;;;;;;6.15;4.85;;;;;;;11.80;90.40;100274.66;4995856;28;20050;-72
2021/06/29 06:00:07;;;;;;;5.93;5.13;;;;;;;11.82;94.18;100275.16;5009758;28;20044;-72
2021/06/29 06:03:00;;;;;;;4.20;3.80;;;;;;;11.91;91.03;100278.09;4967492;28;20089;-72
2021/06/29 06:05:25;;;;;;;2.67;2.38;;;;;;;11.97;89.83;100279.63;5015131;28;20030;-72
2021/06/29 06:07:54;;;;;;;3.53;3.22;;;;;;;12.03;91.10;100277.56;4975312;28;20503;-72
2021/06/29 06:10:20;;;;;;;6.90;4.35;;;;;;;12.10;92.85;100268.81;4979832;28;20406;-72
2021/06/29 06:12:45;;;;;;;4.25;3.85;;;;;;;12.15;92.46;100275.09;4995762;28;20030;-72
2021/06/29 06:15:11;;;;;;;4.78;4.28;;;;;;;12.17;93.26;100272.81;4956414;28;20030;-72
2021/06/29 06:17:37;;;;;;;7.43;6.25;;;;;;;12.23;94.49;100277.16;4959910;28;20121;-72
2021/06/29 06:20:08;;;;;;;3.65;3.22;;;;;;;12.32;91.03;100279.22;4994639;28;20021;-73
2021/06/29 06:22:34;;;;;;;3.40;2.88;;;;;;;12.41;89.91;100277.34;5002216;28;20052;-78
2021/06/29 06:25:00;;;;;;;3.30;2.60;;;;;;;12.53;89.25;100275.66;5001853;28;20030;-78
2021/06/29 06:27:25;;;;;;;4.82;2.10;;;;;;;12.64;88.47;100276.25;4966282;28;20026;-77
2021/06/29 06:29:51;;;;;;;4.03;2.50;;;;;;;12.72;88.34;100267.13;4971420;28;20058;-76
2021/06/29 06:32:16;;;;;;;3.80;2.90;;;;;;;12.75;89.00;100272.09;5023734;28;20108;-77
2021/06/29 06:34:42;;;;;;;5.10;4.47;;;;;;;12.79;90.18;100277.03;5015069;28;20022;-76
2021/06/29 06:37:07;;;;;;;4.93;3.97;;;;;;;12.86;89.68;100271.84;5016369;28;20030;-77
2021/06/29 06:39:33;;;;;;;5.80;3.70;;;;;;;12.93;89.00;100277.81;4985121;28;20031;-76
2021/06/29 06:41:58;;;;;;;7.00;3.92;;;;;;;13.00;89.37;100278.19;5003865;28;20030;-76
2021/06/29 06:44:24;;;;;;;6.53;3.63;;;;;;;13.07;88.90;100284.16;5019094;28;20026;-76
2021/06/29 06:46:50;;;;;;;5.15;3.60;;;;;;;13.13;88.04;100285.69;5004874;28;20034;-76
2021/06/29 06:49:16;;;;;;;5.47;3.70;;;;;;;13.21;87.91;100294.44;5014912;28;20026;-76
2021/06/29 06:51:41;;;;;;;4.00;2.90;;;;;;;13.31;87.51;100295.00;5015382;28;20092;-76
2021/06/29 06:54:06;;;;;;;5.82;4.00;;;;;;;13.38;87.80;100289.81;5009400;28;20045;-76
2021/06/29 06:56:32;;;;;;;3.35;3.05;;;;;;;13.46;87.79;100290.22;5018238;28;20092;-76
2021/06/29 06:58:58;;;;;;;8.63;5.68;;;;;;;13.48;90.29;100290.69;5008737;28;20737;-77
2021/06/29 07:01:23;;;;;;;6.72;5.45;;;;;;;13.49;90.79;100293.19;5012966;28;20042;-76
2021/06/29 07:03:49;;;;;;;5.30;4.57;;;;;;;13.54;89.99;100292.19;5013278;28;20088;-76
2021/06/29 07:06:15;;;;;;;5.75;4.78;;;;;;;13.63;89.30;100290.31;5018256;28;20034;-76
2021/06/29 07:08:41;;;;;;;4.53;4.10;;;;;;;13.68;88.74;100289.31;5007896;28;20026;-76
2021/06/29 07:11:07;;;;;;;5.40;4.90;;;;;;;13.74;88.35;100286.09;5005474;28;20543;-76
2021/06/29 07:13:33;;;;;;;5.65;4.28;;;;;;;13.81;87.74;100288.41;5015256;28;20595;-76
2021/06/29 07:15:59;;;;;;;5.82;4.03;;;;;;;13.86;88.13;100296.66;5014657;28;20023;-76
2021/06/29 07:18:24;;;;;;;5.50;3.38;;;;;;;13.95;87.47;100305.88;4993139;28;20025;-76
2021/06/29 07:20:50;;;;;;;5.63;3.50;;;;;;;14.04;86.55;100308.69;5004742;28;20485;-76
2021/06/29 07:23:15;;;;;;;3.83;2.90;;;;;;;14.14;86.44;100318.78;5019168;28;20034;-76
2021/06/29 07:25:41;;;;;;;5.18;4.65;;;;;;;14.27;89.64;100315.88;5013568;28;20080;-76
2021/06/29 07:28:07;;;;;;;4.35;3.95;;;;;;;14.33;87.29;100308.16;5001702;28;20057;-77
2021/06/29 07:30:34;;;;;;;4.53;3.55;;;;;;;14.43;86.30;100321.00;5017727;28;20030;-77
2021/06/29 07:32:59;;;;;;;4.05;3.05;;;;;;;14.51;85.90;100312.66;5004550;28;20048;-77
2021/06/29 07:35:27;;;;;;;3.70;3.35;;;;;;;14.61;86.06;100322.72;5019652;28;20038;-77
2021/06/29 07:37:53;;;;;;;3.35;2.40;;;;;;;14.69;85.17;100326.69;5021550;28;20509;-76
2021/06/29 07:40:18;;;;;;;3.10;2.80;;;;;;;14.77;84.50;100328.69;5018659;28;20025;-77
2021/06/29 07:42:44;;;;;;;3.53;3.05;;;;;;;14.87;84.80;100327.53;5006973;28;20057;-76
2021/06/29 07:45:10;;;;;;;5.32;3.10;;;;;;;14.95;85.16;100332.31;4996834;28;20029;-76
2021/06/29 07:47:35;;;;;;;4.55;2.90;;;;;;;15.09;84.55;100334.94;4990397;28;20025;-76
2021/06/29 07:50:01;;;;;;;5.20;3.60;;;;;;;15.21;84.73;100332.34;5021383;28;20550;-76
2021/06/29 07:52:27;;;;;;;4.53;3.53;;;;;;;15.34;84.38;100320.13;5007116;28;20371;-76
2021/06/29 07:54:52;;;;;;;3.33;2.70;;;;;;;15.49;83.76;100320.75;5005638;28;20104;-77
2021/06/29 07:57:18;;;;;;;3.97;2.67;;;;;;;15.63;83.55;100321.41;5009100;28;20046;-77
2021/06/29 07:59:43;;;;;;;3.05;2.70;;;;;;;15.79;82.80;100321.72;5006001;28;20046;-77
2021/06/29 08:02:09;;;;;;;3.90;2.80;;;;;;;15.92;82.72;100317.88;5025110;28;20037;-77
2021/06/29 08:04:37;;;;;;;4.68;3.25;;;;;;;16.09;82.35;100329.03;4999872;28;20034;-77
2021/06/29 08:07:02;;;;;;;4.53;3.03;;;;;;;16.22;81.63;100332.78;5007917;28;20081;-77
2021/06/29 08:09:28;;;;;;;3.47;2.53;;;;;;;16.36;80.81;100337.34;5018999;28;20030;-77
2021/06/29 08:11:53;;;;;;;2.63;2.42;;;;;;;16.46;80.33;100329.34;5022278;28;20498;-77
2021/06/29 08:14:19;;;;;;;2.63;2.30;;;;;;;16.57;80.46;100332.56;4986350;28;20084;-77
2021/06/29 08:16:45;;;;;;;3.22;2.17;;;;;;;16.69;79.98;100332.69;5042282;28;20033;-77
2021/06/29 08:19:11;;;;;;;3.35;2.38;;;;;;;16.85;80.22;100335.72;5022996;28;20041;-78
2021/06/29 08:21:37;;;;;;;4.18;2.45;;;;;;;17.03;79.31;100342.06;5020166;28;20552;-79
2021/06/29 08:24:02;;;;;;;2.78;2.10;;;;;;;17.18;78.66;100341.41;4998866;28;20471;-76
2021/06/29 08:26:28;;;;;;;2.42;1.88;;;;;;;17.32;78.36;100349.56;5030079;28;20382;-75
2021/06/29 08:28:54;;;;;;;6.63;2.45;;;;;;;17.43;77.66;100341.53;5016565;28;20021;-75
2021/06/29 08:31:21;;;;;;;3.03;2.20;;;;;;;17.50;77.18;100344.63;5024162;28;20036;-77
2021/06/29 08:33:53;;;;;;;2.17;1.80;;;;;;;17.69;76.96;100340.47;5024775;28;20022;-78
2021/06/29 08:36:19;;;;;;;3.97;2.05;;;;;;;17.91;76.46;100351.31;4997564;28;20066;-77
2021/06/29 08:38:44;;;;;;;3.05;1.80;;;;;;;18.08;75.71;100347.53;5017331;28;20087;-77
2021/06/29 08:41:11;;;;;;;2.28;1.70;;;;;;;18.23;75.11;100343.19;4982208;28;20026;-78
2021/06/29 08:43:38;;;;;;;1.73;1.52;;;;;;;18.44;74.11;100337.44;5013316;28;20046;-77
2021/06/29 08:46:03;;;;;;;3.42;1.70;;;;;;;18.58;73.84;100331.47;5010973;28;20026;-77
2021/06/29 08:48:29;;;;;;;2.15;1.50;;;;;;;18.71;73.68;100338.72;4995258;28;20026;-77
2021/06/29 08:50:54;;;;;;;2.20;1.50;;;;;;;18.80;73.16;100342.25;4994034;28;20548;-77
2021/06/29 08:53:20;;;;;;;1.88;1.38;;;;;;;18.81;72.81;100331.84;5026389;28;20523;-77
2021/06/29 08:55:48;;;;;;;2.55;1.40;;;;;;;18.95;72.25;100344.34;5021544;28;20034;-79
2021/06/29 08:58:18;;;;;;;2.80;1.35;;;;;;;19.02;72.54;100342.94;4999549;28;20071;-76
2021/06/29 09:01:15;;;;;;;2.13;1.25;;;;;;;19.23;71.79;100335.13;5009954;28;20100;-76
2021/06/29 09:03:44;;;;;;;1.30;1.10;;;;;;;19.45;71.20;100338.59;4964783;28;20060;-78
2021/06/29 09:06:09;;;;;;;2.22;1.15;;;;;;;19.65;70.17;100334.72;5007767;28;20030;-78
2021/06/29 09:08:39;;;;;;;1.63;0.98;;;;;;;19.90;70.03;100332.63;5018408;28;20042;-71
2021/06/29 09:11:13;;;;;;;4.80;1.83;;;;;;;20.12;69.42;100322.75;5001086;28;20442;-71
2021/06/29 09:13:39;;;;;;;1.38;1.10;;;;;;;20.38;69.03;100324.19;5019829;28;20053;-71
2021/06/29 09:16:06;;;;;;;3.72;1.52;;;;;;;20.58;67.98;100330.75;4975037;28;20480;-71
2021/06/29 09:18:33;;;;;;;3.92;1.90;;;;;;;20.78;67.13;100328.78;4960869;28;20037;-72
2021/06/29 09:21:06;;;;;;;4.10;1.60;;;;;;;20.97;66.37;100337.28;4980214;28;20026;-71
2021/06/29 09:23:36;;;;;;;3.75;1.90;;;;;;;21.12;66.15;100336.44;4970170;28;20026;-72
2021/06/29 09:26:03;;;;;;;3.58;2.08;;;;;;;21.22;65.57;100334.22;4996538;28;20072;-71
2021/06/29 09:28:33;;;;;;;4.70;2.05;;;;;;;21.30;65.33;100336.00;4998337;28;20034;-72
2021/06/29 09:31:10;;;;;;;5.38;1.73;;;;;;;21.38;64.56;100338.63;5007937;28;20112;-72
2021/06/29 09:33:41;;;;;;;5.70;1.80;;;;;;;21.50;64.37;100334.81;4995309;28;20030;-72
2021/06/29 09:36:08;;;;;;;2.10;1.40;;;;;;;21.57;64.34;100332.16;5025467;28;20040;-72
2021/06/29 09:38:36;;;;;;;1.73;0.95;;;;;;;21.72;64.08;100332.44;5000397;28;20026;-71
2021/06/29 09:41:05;;;;;;;5.18;1.42;;;;;;;21.81;63.70;100335.84;4989938;28;20360;-72
2021/06/29 09:43:35;;;;;;;1.70;1.30;;;;;;;21.89;63.24;100333.97;4998036;28;20150;-71
2021/06/29 09:46:02;;;;;;;3.03;0.82;;;;;;;22.15;62.95;100330.38;4983060;28;20037;-72
2021/06/29 09:48:41;;;;;;;3.38;1.20;;;;;;;22.35;61.53;100343.31;4994392;28;20030;-72
2021/06/29 09:51:21;;;;;;;4.97;0.93;;;;;;;22.56;62.08;100342.84;4997310;28;20109;-72
2021/06/29 09:53:48;;;;;;;1.15;0.70;;;;;;;22.81;61.85;100343.22;4975842;28;20164;-72
2021/06/29 09:56:17;;;;;;;4.07;1.20;;;;;;;22.85;61.58;100346.94;5000657;28;20035;-72
2021/06/29 09:58:46;;;;;;;1.85;0.80;;;;;;;23.07;60.31;100348.13;4995682;28;20043;-72
2021/06/29 10:01:15;;;;;;;3.22;0.82;;;;;;;23.15;59.13;100346.16;5015648;28;20037;-72
2021/06/29 10:03:41;;;;;;;1.58;1.10;;;;;;;23.18;59.98;100340.56;5019740;28;20038;-72
2021/06/29 10:06:17;;;;;;;3.25;1.10;;;;;;;23.24;59.76;100346.72;5044543;28;20033;-72
2021/06/29 10:08:44;;;;;;;1.45;0.95;;;;;;;23.34;59.51;100351.69;5003763;28;20038;-72
2021/06/29 10:11:30;;;;;;;2.30;0.70;;;;;;;23.56;59.34;100352.78;5019263;28;20030;-72
2021/06/29 10:14:00;;;;;;;1.42;0.63;;;;;;;23.87;58.46;100345.06;5006083;28;20038;-72
2021/06/29 10:16:38;;;;;;;2.38;0.80;;;;;;;23.92;58.01;100343.91;5010935;28;20030;-73
2021/06/29 10:21:37;;;;;;;0.90;0.75;;;;;;;24.05;56.13;100345.25;5000717;28;20113;-72
2021/06/29 10:24:04;;;;;;;1.60;0.60;;;;;;;24.21;56.36;100345.00;5012581;28;20038;-72
2021/06/29 10:26:31;;;;;;;2.58;0.80;;;;;;;24.13;57.07;100337.66;5008359;28;20031;-72
2021/06/29 10:28:57;;;;;;;1.00;0.70;;;;;;;24.20;56.95;100338.50;5015352;28;20033;-72
2021/06/29 10:31:30;;;;;;;2.05;0.73;;;;;;;24.13;56.71;100334.81;5017759;28;20447;-73
2021/06/29 10:33:59;;;;;;;0.77;0.60;;;;;;;24.17;56.79;100327.13;5020118;28;20037;-72
2021/06/29 10:36:25;;;;;;;1.05;0.50;;;;;;;24.48;53.36;100329.44;4999324;28;20030;-73
2021/06/29 10:38:51;;;;;;;0.90;0.30;;;;;;;24.64;53.52;100329.19;4999183;28;20026;-72
2021/06/29 10:41:16;;;;;;;2.47;0.50;;;;;;;24.74;54.86;100331.28;5011068;28;20029;-72
2021/06/29 10:43:42;;;;;;;1.27;0.73;;;;;;;24.65;55.25;100321.47;5012736;28;20038;-72
2021/06/29 10:46:15;;;;;;;1.90;0.40;;;;;;;24.76;54.29;100319.50;5011308;28;20030;-80
2021/06/29 10:48:42;;;;;;;1.10;0.40;;;;;;;24.85;51.69;100327.69;5005583;28;20030;-80
2021/06/29 10:51:11;;;;;;;1.60;0.40;;;;;;;25.05;52.51;100319.72;5018382;28;20057;-73
2021/06/29 10:53:40;;;;;;;2.58;0.50;;;;;;;25.22;53.44;100321.03;5014801;28;20041;-73
2021/06/29 10:56:08;;;;;;;1.65;0.80;;;;;;;25.35;53.63;100322.31;5022537;28;20111;-72
2021/06/29 10:58:41;;;;;;;1.98;0.50;;;;;;;25.45;53.46;100330.06;5005478;28;20046;-72
2021/06/29 11:01:28;;;;;;;1.58;0.60;;;;;;;25.44;53.82;100327.63;5002273;28;20522;-73
2021/06/29 11:03:55;;;;;;;2.78;0.70;;;;;;;25.35;53.51;100320.28;5013775;28;20057;-73
2021/06/29 11:06:32;;;;;;;1.70;0.60;;;;;;;25.40;53.37;100316.22;5001846;28;20025;-73
2021/06/29 11:08:59;;;;;;;1.88;0.60;;;;;;;25.44;52.90;100314.22;5020739;28;20499;-73
2021/06/29 11:11:26;;;;;;;3.42;0.50;;;;;;;25.62;52.49;100317.94;4988147;28;20030;-73
2021/06/29 11:13:52;;;;;;;1.17;0.60;;;;;;;25.77;52.55;100312.28;5000794;28;20061;-72
2021/06/29 11:16:18;;;;;;;1.15;0.50;;;;;;;25.93;52.83;100315.59;5001499;28;20026;-73
2021/06/29 11:18:46;;;;;;;1.60;0.60;;;;;;;26.08;51.41;100317.25;4972218;28;20027;-73
2021/06/29 11:21:18;;;;;;;5.25;0.60;;;;;;;26.26;49.47;100317.25;5016887;28;20057;-72
2021/06/29 11:23:43;;;;;;;1.20;0.50;;;;;;;26.28;49.93;100309.16;5012426;28;20544;-72
2021/06/29 11:26:12;;;;;;;1.35;0.50;;;;;;;26.16;51.28;100311.56;4999110;28;20030;-72
2021/06/29 11:28:48;;;;;;;4.05;0.80;;;;;;;26.03;51.17;100314.00;5005324;28;20457;-73
2021/06/29 11:31:19;;;;;;;1.58;0.57;;;;;;;25.71;51.89;100316.75;4979916;28;20025;-71
2021/06/29 11:33:58;;;;;;;2.25;0.75;;;;;;;25.62;52.33;100326.47;5033908;28;20545;-71